CEB2A RPLL-RPVP
Flight info
| Callsign | CEB2A |
|---|---|
| Flight time | N/A |
| Altitude | 36000 |
| Route | BUCAL2R BUCAL M646 NOMYO NOMYO2W |
| Aircraft | A21N/M-SDE2E3FGHIRWXY/LB1 |
Departure
| Time | 2026-05-05 03:40 |
|---|---|
| Airport | Ninoy Aquino International Airport (RPLL) |
Arrival
| Time | N/A |
|---|---|
| Airport | Puerto Princesa International Airport / PAF Antonio Bautista Air Base (RPVP) |
| Time | Latitude | Longitude | Altitude | Speed | Heading |
|---|---|---|---|---|---|
| 2026-05-05 03:20 | 14.50882 | 121.01335 | 84 ft | 0 kts | 329° |
| 2026-05-05 03:30 | 14.50881 | 121.01336 | 84 ft | 1 kts | 329° |
| 2026-05-05 03:30 | 14.50871 | 121.01342 | 84 ft | 2 kts | 329° |
| 2026-05-05 03:31 | 14.50860 | 121.01349 | 84 ft | 2 kts | 329° |
| 2026-05-05 03:31 | 14.50848 | 121.01356 | 84 ft | 2 kts | 329° |
| 2026-05-05 03:31 | 14.50837 | 121.01363 | 84 ft | 2 kts | 329° |
| 2026-05-05 03:31 | 14.50825 | 121.01370 | 84 ft | 2 kts | 329° |
| 2026-05-05 03:32 | 14.50814 | 121.01377 | 84 ft | 2 kts | 329° |
| 2026-05-05 03:32 | 14.50807 | 121.01381 | 84 ft | 2 kts | 329° |
| 2026-05-05 03:32 | 14.50800 | 121.01390 | 84 ft | 2 kts | 285° |
| 2026-05-05 03:32 | 14.50800 | 121.01405 | 84 ft | 1 kts | 247° |
| 2026-05-05 03:33 | 14.50803 | 121.01411 | 84 ft | 1 kts | 238° |
| 2026-05-05 03:33 | 14.50804 | 121.01413 | 84 ft | 0 kts | 239° |
| 2026-05-05 03:35 | 14.50804 | 121.01412 | 84 ft | 0 kts | 239° |
| 2026-05-05 03:35 | 14.50798 | 121.01402 | 84 ft | 3 kts | 239° |
| 2026-05-05 03:35 | 14.50776 | 121.01363 | 84 ft | 9 kts | 240° |
| 2026-05-05 03:35 | 14.50723 | 121.01321 | 84 ft | 14 kts | 179° |
| 2026-05-05 03:36 | 14.50669 | 121.01307 | 84 ft | 16 kts | 218° |
| 2026-05-05 03:36 | 14.50538 | 121.01086 | 84 ft | 5 kts | 240° |
| 2026-05-05 03:37 | 14.50513 | 121.01041 | 84 ft | 11 kts | 240° |
| 2026-05-05 03:37 | 14.50376 | 121.00797 | 84 ft | 28 kts | 241° |
| 2026-05-05 03:38 | 14.50029 | 121.00173 | 84 ft | 36 kts | 239° |
| 2026-05-05 03:38 | 14.49938 | 121.00007 | 84 ft | 16 kts | 240° |
| 2026-05-05 03:38 | 14.49854 | 120.99982 | 84 ft | 15 kts | 154° |
| 2026-05-05 03:39 | 14.49825 | 121.00076 | 84 ft | 14 kts | 70° |
| 2026-05-05 03:39 | 14.49890 | 121.00203 | 84 ft | 46 kts | 59° |
| 2026-05-05 03:39 | 14.50181 | 121.00725 | 84 ft | 128 kts | 60° |
| 2026-05-05 03:40 | 14.51157 | 121.02464 | 618 ft | 137 kts | 63° |
| 2026-05-05 03:40 | 14.51710 | 121.03442 | 989 ft | 166 kts | 63° |
| 2026-05-05 03:40 | 14.53126 | 121.06047 | 2727 ft | 184 kts | 63° |
| 2026-05-05 03:41 | 14.53763 | 121.07201 | 3022 ft | 193 kts | 63° |
| 2026-05-05 03:41 | 14.54383 | 121.08322 | 3222 ft | 203 kts | 63° |
| 2026-05-05 03:41 | 14.55740 | 121.10769 | 3734 ft | 229 kts | 62° |
| 2026-05-05 03:41 | 14.56399 | 121.12928 | 4204 ft | 236 kts | 93° |
| 2026-05-05 03:42 | 14.55999 | 121.14520 | 4738 ft | 231 kts | 120° |
| 2026-05-05 03:42 | 14.55019 | 121.15800 | 5246 ft | 230 kts | 137° |
| 2026-05-05 03:42 | 14.53865 | 121.16975 | 5693 ft | 234 kts | 139° |
| 2026-05-05 03:42 | 14.52649 | 121.18182 | 5888 ft | 256 kts | 138° |
| 2026-05-05 03:43 | 14.51334 | 121.19509 | 6262 ft | 271 kts | 138° |
| 2026-05-05 03:43 | 14.49968 | 121.20916 | 6739 ft | 282 kts | 137° |
| 2026-05-05 03:43 | 14.48560 | 121.22366 | 7406 ft | 285 kts | 140° |
| 2026-05-05 03:43 | 14.46926 | 121.23473 | 8011 ft | 284 kts | 163° |
| 2026-05-05 03:44 | 14.45012 | 121.23729 | 8592 ft | 282 kts | 189° |
| 2026-05-05 03:44 | 14.43158 | 121.23104 | 9226 ft | 280 kts | 214° |
| 2026-05-05 03:44 | 14.41706 | 121.21785 | 9836 ft | 281 kts | 230° |
| 2026-05-05 03:44 | 14.40356 | 121.20297 | 10379 ft | 289 kts | 225° |
| 2026-05-05 03:45 | 14.38729 | 121.18944 | 10672 ft | 307 kts | 219° |
| 2026-05-05 03:45 | 14.36968 | 121.17617 | 11052 ft | 319 kts | 218° |
| 2026-05-05 03:45 | 14.35167 | 121.16270 | 11610 ft | 323 kts | 219° |
| 2026-05-05 03:45 | 14.33369 | 121.14911 | 12164 ft | 328 kts | 219° |
| 2026-05-05 03:46 | 14.31506 | 121.13486 | 12772 ft | 331 kts | 219° |
| 2026-05-05 03:46 | 14.29663 | 121.12067 | 13406 ft | 333 kts | 219° |
| 2026-05-05 03:46 | 14.27829 | 121.10648 | 14025 ft | 334 kts | 219° |
| 2026-05-05 03:46 | 14.25957 | 121.09199 | 14541 ft | 340 kts | 219° |
| 2026-05-05 03:47 | 14.24046 | 121.07718 | 14981 ft | 347 kts | 219° |
| 2026-05-05 03:47 | 14.22134 | 121.06234 | 15515 ft | 351 kts | 219° |
| 2026-05-05 03:47 | 14.20177 | 121.04716 | 16074 ft | 354 kts | 219° |
| 2026-05-05 03:47 | 14.18191 | 121.03175 | 16631 ft | 357 kts | 219° |
| 2026-05-05 03:48 | 14.16222 | 121.01648 | 17189 ft | 359 kts | 218° |
| 2026-05-05 03:48 | 14.14209 | 121.00086 | 17733 ft | 362 kts | 218° |
| 2026-05-05 03:48 | 14.12213 | 120.98538 | 18256 ft | 365 kts | 218° |
| 2026-05-05 03:48 | 14.10164 | 120.96949 | 18785 ft | 368 kts | 218° |
| 2026-05-05 03:49 | 14.08119 | 120.95364 | 19303 ft | 371 kts | 218° |
| 2026-05-05 03:49 | 14.06062 | 120.93771 | 19814 ft | 374 kts | 218° |
| 2026-05-05 03:49 | 14.03966 | 120.92146 | 20321 ft | 377 kts | 218° |
| 2026-05-05 03:49 | 14.01880 | 120.90530 | 20821 ft | 380 kts | 218° |
| 2026-05-05 03:50 | 13.99765 | 120.88892 | 21318 ft | 383 kts | 218° |
| 2026-05-05 03:50 | 13.97631 | 120.87241 | 21818 ft | 386 kts | 218° |
| 2026-05-05 03:50 | 13.95501 | 120.85592 | 22302 ft | 389 kts | 218° |
| 2026-05-05 03:50 | 13.93332 | 120.83913 | 22783 ft | 392 kts | 218° |
| 2026-05-05 03:51 | 13.91141 | 120.82217 | 23256 ft | 394 kts | 218° |
| 2026-05-05 03:51 | 13.88944 | 120.80521 | 23715 ft | 397 kts | 217° |
| 2026-05-05 03:51 | 13.86744 | 120.78830 | 24164 ft | 400 kts | 217° |
| 2026-05-05 03:51 | 13.84513 | 120.77115 | 24607 ft | 403 kts | 217° |
| 2026-05-05 03:52 | 13.82275 | 120.75392 | 25042 ft | 405 kts | 217° |
| 2026-05-05 03:52 | 13.80018 | 120.73651 | 25466 ft | 408 kts | 217° |
| 2026-05-05 03:52 | 13.77746 | 120.71899 | 25883 ft | 410 kts | 217° |
| 2026-05-05 03:52 | 13.75456 | 120.70130 | 26291 ft | 413 kts | 217° |
| 2026-05-05 03:53 | 13.73159 | 120.68357 | 26696 ft | 415 kts | 217° |
| 2026-05-05 03:53 | 13.70855 | 120.66579 | 27091 ft | 417 kts | 217° |
| 2026-05-05 03:53 | 13.68524 | 120.64783 | 27476 ft | 419 kts | 217° |
| 2026-05-05 03:53 | 13.66183 | 120.62976 | 27851 ft | 422 kts | 217° |
| 2026-05-05 03:54 | 13.63858 | 120.61182 | 28216 ft | 424 kts | 217° |
| 2026-05-05 03:54 | 13.61435 | 120.59432 | 28571 ft | 426 kts | 213° |
| 2026-05-05 03:54 | 13.58905 | 120.57840 | 28921 ft | 428 kts | 209° |
| 2026-05-05 03:54 | 13.56294 | 120.56426 | 29257 ft | 430 kts | 205° |
| 2026-05-05 03:55 | 13.53581 | 120.55109 | 29597 ft | 432 kts | 205° |
| 2026-05-05 03:55 | 13.50841 | 120.53803 | 29928 ft | 434 kts | 204° |
| 2026-05-05 03:55 | 13.48106 | 120.52499 | 30250 ft | 436 kts | 205° |
| 2026-05-05 03:55 | 13.45389 | 120.51202 | 30562 ft | 437 kts | 205° |
| 2026-05-05 03:56 | 13.42604 | 120.49868 | 30875 ft | 439 kts | 205° |
| 2026-05-05 03:56 | 13.39845 | 120.48545 | 31181 ft | 441 kts | 205° |
| 2026-05-05 03:56 | 13.37076 | 120.47217 | 31474 ft | 442 kts | 205° |
| 2026-05-05 03:56 | 13.34298 | 120.45883 | 31749 ft | 444 kts | 205° |
| 2026-05-05 03:57 | 13.31522 | 120.44551 | 32057 ft | 445 kts | 205° |
| 2026-05-05 03:57 | 13.28729 | 120.43208 | 32448 ft | 443 kts | 205° |
| 2026-05-05 03:57 | 13.25954 | 120.41872 | 32839 ft | 441 kts | 205° |
| 2026-05-05 03:57 | 13.23187 | 120.40541 | 33208 ft | 440 kts | 205° |
| 2026-05-05 03:58 | 13.20424 | 120.39213 | 33561 ft | 439 kts | 205° |
| 2026-05-05 03:58 | 13.17678 | 120.37894 | 33905 ft | 438 kts | 205° |
| 2026-05-05 03:58 | 13.14931 | 120.36575 | 34237 ft | 437 kts | 204° |
| 2026-05-05 03:58 | 13.12197 | 120.35262 | 34516 ft | 437 kts | 204° |
| 2026-05-05 03:59 | 13.09456 | 120.33942 | 34742 ft | 439 kts | 204° |
| 2026-05-05 03:59 | 13.06668 | 120.32591 | 34902 ft | 442 kts | 205° |
| 2026-05-05 03:59 | 13.03908 | 120.31258 | 35034 ft | 445 kts | 205° |
| 2026-05-05 03:59 | 13.01082 | 120.29900 | 35194 ft | 448 kts | 206° |
| 2026-05-05 04:00 | 12.98283 | 120.28557 | 35413 ft | 449 kts | 206° |
| 2026-05-05 04:00 | 12.95489 | 120.27219 | 35681 ft | 448 kts | 207° |
| 2026-05-05 04:00 | 12.92649 | 120.25854 | 35925 ft | 447 kts | 207° |
| 2026-05-05 04:00 | 12.89913 | 120.24538 | 35957 ft | 448 kts | 207° |
| 2026-05-05 04:01 | 12.84229 | 120.21820 | 35968 ft | 448 kts | 207° |
| 2026-05-05 04:01 | 12.78576 | 120.19121 | 35970 ft | 448 kts | 207° |
| 2026-05-05 04:02 | 12.72951 | 120.16434 | 35970 ft | 448 kts | 207° |
| 2026-05-05 04:02 | 12.67353 | 120.13757 | 35970 ft | 448 kts | 207° |
| 2026-05-05 04:03 | 12.61719 | 120.11066 | 35970 ft | 448 kts | 207° |
| 2026-05-05 04:03 | 12.56081 | 120.08373 | 35971 ft | 448 kts | 207° |
| 2026-05-05 04:04 | 12.50432 | 120.05677 | 35971 ft | 447 kts | 207° |
| 2026-05-05 04:04 | 12.44815 | 120.02997 | 35971 ft | 447 kts | 207° |
| 2026-05-05 04:05 | 12.39189 | 120.00314 | 35971 ft | 447 kts | 207° |
| 2026-05-05 04:05 | 12.33574 | 119.97638 | 35970 ft | 447 kts | 207° |
| 2026-05-05 04:06 | 12.27931 | 119.94949 | 35971 ft | 448 kts | 207° |
| 2026-05-05 04:06 | 12.22329 | 119.92281 | 35971 ft | 447 kts | 207° |
| 2026-05-05 04:07 | 12.16697 | 119.89601 | 35971 ft | 447 kts | 207° |
| 2026-05-05 04:07 | 12.11056 | 119.86918 | 35971 ft | 447 kts | 207° |
| 2026-05-05 04:08 | 12.05454 | 119.84255 | 35970 ft | 447 kts | 207° |
| 2026-05-05 04:08 | 11.99810 | 119.81573 | 35971 ft | 447 kts | 207° |
| 2026-05-05 04:09 | 11.94160 | 119.78889 | 35971 ft | 447 kts | 207° |
| 2026-05-05 04:09 | 11.88526 | 119.76217 | 35969 ft | 447 kts | 207° |
| 2026-05-05 04:10 | 11.82891 | 119.73557 | 35970 ft | 447 kts | 207° |
| 2026-05-05 04:10 | 11.77269 | 119.70898 | 35971 ft | 447 kts | 207° |
| 2026-05-05 04:11 | 11.71617 | 119.68218 | 35971 ft | 447 kts | 207° |
| 2026-05-05 04:11 | 11.65974 | 119.65569 | 35971 ft | 447 kts | 206° |
| 2026-05-05 04:12 | 11.60311 | 119.62941 | 35971 ft | 447 kts | 206° |
| 2026-05-05 04:12 | 11.54669 | 119.60325 | 35970 ft | 447 kts | 206° |
| 2026-05-05 04:13 | 11.49005 | 119.57698 | 35970 ft | 447 kts | 206° |
| 2026-05-05 04:13 | 11.43326 | 119.55064 | 35971 ft | 447 kts | 206° |
| 2026-05-05 04:14 | 11.37643 | 119.52429 | 35971 ft | 447 kts | 206° |
| 2026-05-05 04:14 | 11.32020 | 119.49824 | 35970 ft | 447 kts | 206° |
| 2026-05-05 04:15 | 11.26366 | 119.47205 | 35966 ft | 446 kts | 206° |
| 2026-05-05 04:15 | 11.23530 | 119.45892 | 35645 ft | 447 kts | 206° |
| 2026-05-05 04:15 | 11.20687 | 119.44576 | 34708 ft | 456 kts | 206° |
| 2026-05-05 04:16 | 11.17755 | 119.43218 | 33734 ft | 463 kts | 206° |
| 2026-05-05 04:16 | 11.14811 | 119.41855 | 32927 ft | 465 kts | 206° |
| 2026-05-05 04:16 | 11.11861 | 119.40491 | 32193 ft | 465 kts | 206° |
| 2026-05-05 04:16 | 11.08932 | 119.39136 | 31448 ft | 465 kts | 206° |
| 2026-05-05 04:17 | 11.06007 | 119.37785 | 30828 ft | 462 kts | 206° |
| 2026-05-05 04:17 | 11.03107 | 119.36445 | 30322 ft | 456 kts | 206° |
| 2026-05-05 04:17 | 11.00254 | 119.35125 | 29751 ft | 452 kts | 206° |
| 2026-05-05 04:17 | 10.97387 | 119.33791 | 29111 ft | 450 kts | 206° |
| 2026-05-05 04:18 | 10.94571 | 119.32472 | 28488 ft | 447 kts | 205° |
| 2026-05-05 04:18 | 10.91754 | 119.31158 | 27882 ft | 444 kts | 205° |
| 2026-05-05 04:18 | 10.88925 | 119.29845 | 27285 ft | 440 kts | 205° |
| 2026-05-05 04:18 | 10.86234 | 119.28606 | 26717 ft | 437 kts | 204° |
| 2026-05-05 04:19 | 10.83471 | 119.27339 | 26136 ft | 433 kts | 205° |
| 2026-05-05 04:19 | 10.80732 | 119.26082 | 25559 ft | 429 kts | 205° |
| 2026-05-05 04:19 | 10.77999 | 119.24825 | 24983 ft | 425 kts | 205° |
| 2026-05-05 04:19 | 10.75330 | 119.23597 | 24422 ft | 422 kts | 205° |
| 2026-05-05 04:20 | 10.72649 | 119.22362 | 23838 ft | 419 kts | 205° |
| 2026-05-05 04:20 | 10.69992 | 119.21138 | 22738 ft | 429 kts | 205° |
| 2026-05-05 04:20 | 10.67230 | 119.19865 | 21571 ft | 439 kts | 205° |
| 2026-05-05 04:20 | 10.64473 | 119.18594 | 20430 ft | 447 kts | 205° |
| 2026-05-05 04:21 | 10.61631 | 119.17284 | 19270 ft | 453 kts | 205° |
| 2026-05-05 04:21 | 10.58761 | 119.15962 | 18113 ft | 457 kts | 205° |
| 2026-05-05 04:21 | 10.55853 | 119.14623 | 17200 ft | 454 kts | 205° |
| 2026-05-05 04:21 | 10.53535 | 119.13557 | 16577 ft | 449 kts | 206° |
| 2026-05-05 04:22 | 10.50959 | 119.12372 | 15886 ft | 444 kts | 206° |
| 2026-05-05 04:22 | 10.48170 | 119.11090 | 15138 ft | 439 kts | 206° |
| 2026-05-05 04:22 | 10.45395 | 119.09815 | 14391 ft | 433 kts | 205° |
| 2026-05-05 04:22 | 10.42703 | 119.08578 | 13651 ft | 428 kts | 205° |
| 2026-05-05 04:23 | 10.39988 | 119.07330 | 12887 ft | 422 kts | 205° |
| 2026-05-05 04:23 | 10.37331 | 119.06107 | 12121 ft | 417 kts | 205° |
| 2026-05-05 04:23 | 10.34769 | 119.04778 | 11403 ft | 409 kts | 211° |
| 2026-05-05 04:23 | 10.32436 | 119.03197 | 10896 ft | 397 kts | 216° |
| 2026-05-05 04:24 | 10.30248 | 119.01563 | 10495 ft | 383 kts | 217° |
| 2026-05-05 04:24 | 10.28137 | 118.99964 | 10091 ft | 371 kts | 217° |
| 2026-05-05 04:24 | 10.26093 | 118.98419 | 9689 ft | 360 kts | 217° |
| 2026-05-05 04:25 | 10.22123 | 118.95434 | 8892 ft | 370 kts | 216° |
| 2026-05-05 04:25 | 10.20002 | 118.93844 | 8487 ft | 384 kts | 216° |
| 2026-05-05 04:25 | 10.17862 | 118.92240 | 8086 ft | 384 kts | 216° |
| 2026-05-05 04:25 | 10.15719 | 118.90633 | 7685 ft | 383 kts | 216° |
| 2026-05-05 04:26 | 10.13410 | 118.89291 | 7251 ft | 379 kts | 198° |
| 2026-05-05 04:26 | 10.10831 | 118.88980 | 6847 ft | 377 kts | 174° |
| 2026-05-05 04:26 | 10.08321 | 118.89766 | 6451 ft | 376 kts | 155° |
| 2026-05-05 04:26 | 10.05973 | 118.90934 | 6050 ft | 374 kts | 155° |
| 2026-05-05 04:27 | 10.03622 | 118.91962 | 5653 ft | 371 kts | 159° |
| 2026-05-05 04:27 | 10.01184 | 118.92837 | 5251 ft | 369 kts | 162° |
| 2026-05-05 04:27 | 9.98746 | 118.93610 | 4865 ft | 362 kts | 163° |
| 2026-05-05 04:27 | 9.96392 | 118.94318 | 4232 ft | 354 kts | 163° |
| 2026-05-05 04:28 | 9.94014 | 118.95024 | 3394 ft | 354 kts | 162° |
| 2026-05-05 04:28 | 9.91693 | 118.95712 | 2811 ft | 336 kts | 162° |
| 2026-05-05 04:28 | 9.89564 | 118.96343 | 2525 ft | 303 kts | 162° |
| 2026-05-05 04:28 | 9.87644 | 118.96910 | 2490 ft | 270 kts | 162° |
| 2026-05-05 04:29 | 9.85888 | 118.97430 | 2477 ft | 258 kts | 162° |
| 2026-05-05 04:29 | 9.84202 | 118.97932 | 2477 ft | 248 kts | 161° |
| 2026-05-05 04:29 | 9.82597 | 118.98407 | 2478 ft | 233 kts | 163° |
| 2026-05-05 04:29 | 9.81048 | 118.98592 | 2466 ft | 220 kts | 180° |
| 2026-05-05 04:30 | 9.79597 | 118.98403 | 2571 ft | 197 kts | 186° |
| 2026-05-05 04:30 | 9.78316 | 118.98171 | 2553 ft | 175 kts | 186° |
| 2026-05-05 04:30 | 9.77308 | 118.97983 | 2494 ft | 154 kts | 186° |
| 2026-05-05 04:30 | 9.76205 | 118.97783 | 2479 ft | 149 kts | 185° |
| 2026-05-05 04:31 | 9.75171 | 118.97604 | 2482 ft | 148 kts | 185° |
| 2026-05-05 04:31 | 9.74152 | 118.97425 | 2484 ft | 149 kts | 189° |
| 2026-05-05 04:31 | 9.73534 | 118.97121 | 2459 ft | 153 kts | 219° |
| 2026-05-05 04:31 | 9.73090 | 118.95783 | 2492 ft | 159 kts | 270° |
| 2026-05-05 04:32 | 9.73215 | 118.94666 | 2491 ft | 160 kts | 276° |
| 2026-05-05 04:32 | 9.73331 | 118.93842 | 2488 ft | 159 kts | 275° |
| 2026-05-05 04:32 | 9.73476 | 118.92471 | 2486 ft | 159 kts | 272° |
| 2026-05-05 04:32 | 9.73555 | 118.91340 | 2486 ft | 159 kts | 271° |
| 2026-05-05 04:33 | 9.73611 | 118.90229 | 2486 ft | 159 kts | 270° |
| 2026-05-05 04:33 | 9.73658 | 118.89111 | 2374 ft | 159 kts | 270° |
| 2026-05-05 04:33 | 9.73702 | 118.87986 | 2170 ft | 158 kts | 270° |
| 2026-05-05 04:33 | 9.73747 | 118.86864 | 1957 ft | 158 kts | 270° |
| 2026-05-05 04:34 | 9.73792 | 118.85750 | 1746 ft | 158 kts | 271° |
| 2026-05-05 04:34 | 9.73838 | 118.84637 | 1536 ft | 158 kts | 271° |
| 2026-05-05 04:34 | 9.73885 | 118.83518 | 1325 ft | 158 kts | 271° |
| 2026-05-05 04:34 | 9.73932 | 118.82410 | 1116 ft | 158 kts | 271° |
| 2026-05-05 04:35 | 9.73980 | 118.81290 | 905 ft | 157 kts | 272° |
| 2026-05-05 04:35 | 9.74024 | 118.80188 | 698 ft | 157 kts | 272° |
| 2026-05-05 04:35 | 9.74065 | 118.79125 | 500 ft | 157 kts | 272° |
| 2026-05-05 04:35 | 9.74097 | 118.78223 | 333 ft | 157 kts | 272° |